Time;durP1;ratioP1;P1;durP2;ratioP2;P2;SDS_P1;SDS_P2;PMS_P1;PMS_P2;Temp;Humidity;BMP_temperature;BMP_pressure;BME280_temperature;BME280_humidity;BME280_pressure;Samples;Min_cycle;Max_cycle;Signal;HPM_P1;HPM_P2
2021/10/02 00:44:48;;;;;;;5.38;4.10;;;;;;;;;;4936315;28;20052;-77
2021/10/02 00:47:19;;;;;;;5.60;3.97;;;;;;;;;;4936917;29;20047;-77
2021/10/02 00:49:47;;;;;;;2.85;2.38;;;;;;;;;;4936210;29;20052;-77
2021/10/02 00:52:16;;;;;;;5.75;3.58;;;;;;;;;;4936527;29;20070;-77
2021/10/02 00:54:45;;;;;;;3.17;2.97;;;;;;;;;;4935992;29;20055;-77
2021/10/02 00:57:13;;;;;;;7.95;4.00;;;;;;;;;;4931527;29;20048;-77
2021/10/02 00:59:41;;;;;;;5.10;4.25;;;;;;;;;;4928148;29;20060;-77
2021/10/02 01:02:14;;;;;;;7.47;4.75;;;;;;;;;;4934823;29;20497;-77
2021/10/02 01:04:47;;;;;;;4.80;4.03;;;;;;;;;;4935809;29;20406;-77
2021/10/02 01:07:22;;;;;;;4.72;4.30;;;;;;;;;;4935312;29;20087;-77
2021/10/02 01:10:14;;;;;;;5.60;4.63;;;;;;;;;;4935719;28;20117;-77
2021/10/02 01:13:00;;;;;;;4.88;3.42;;;;;;;;;;4935688;29;20055;-77
2021/10/02 01:15:46;;;;;;;4.85;4.07;;;;;;;;;;4936356;29;20055;-77
2021/10/02 01:18:21;;;;;;;10.20;4.07;;;;;;;;;;4934230;29;20082;-77
2021/10/02 01:21:08;;;;;;;5.25;3.88;;;;;;;;;;4935732;29;20048;-77
2021/10/02 01:23:52;;;;;;;4.60;3.40;;;;;;;;;;4936017;29;20054;-77
2021/10/02 01:26:26;;;;;;;6.70;4.40;;;;;;;;;;4935423;29;20059;-77
2021/10/02 01:28:57;;;;;;;6.57;3.65;;;;;;;;;;4935921;29;20055;-77
2021/10/02 01:31:34;;;;;;;5.33;4.83;;;;;;;;;;4935829;29;20051;-77
2021/10/02 01:34:14;;;;;;;4.75;3.47;;;;;;;;;;4935575;29;20052;-77
2021/10/02 01:48:09;;;;;;;3.65;3.35;;;;;;;;;;4916670;29;20044;-77
2021/10/02 01:50:38;;;;;;;2.78;2.58;;;;;;;;;;4915983;29;20059;-77
2021/10/02 01:53:07;;;;;;;4.80;4.40;;;;;;;;;;4916357;29;20044;-77
2021/10/02 01:55:36;;;;;;;5.07;3.97;;;;;;;;;;4914485;29;20063;-77
2021/10/02 01:58:13;;;;;;;3.78;3.30;;;;;;;;;;4916234;29;20048;-77
2021/10/02 02:00:43;;;;;;;6.07;3.13;;;;;;;;;;4914204;29;20398;-77
2021/10/02 02:03:13;;;;;;;4.43;3.55;;;;;;;;;;4923484;29;20056;-85
2021/10/02 02:05:41;;;;;;;5.53;5.00;;;;;;;;;;4916852;29;20383;-77
2021/10/02 02:08:11;;;;;;;4.90;3.47;;;;;;;;;;4935314;29;20063;-77
2021/10/02 02:10:43;;;;;;;5.50;3.72;;;;;;;;;;4934107;29;20059;-77
2021/10/02 02:13:13;;;;;;;5.07;4.22;;;;;;;;;;4932449;29;20513;-77
2021/10/02 02:15:42;;;;;;;4.47;3.17;;;;;;;;;;4935000;29;20051;-77
2021/10/02 02:18:13;;;;;;;3.50;3.00;;;;;;;;;;4934780;29;20517;-77
2021/10/02 02:20:44;;;;;;;3.20;2.97;;;;;;;;;;4918673;29;20052;-77
2021/10/02 02:23:12;;;;;;;4.20;3.33;;;;;;;;;;4916016;29;20052;-77
2021/10/02 02:25:41;;;;;;;3.45;3.15;;;;;;;;;;4914679;29;20055;-77
2021/10/02 02:28:09;;;;;;;5.57;3.78;;;;;;;;;;4915787;29;20056;-77
2021/10/02 02:30:38;;;;;;;4.47;2.90;;;;;;;;;;4915363;29;20556;-77
2021/10/02 02:33:06;;;;;;;5.28;4.75;;;;;;;;;;4915527;29;20582;-77
2021/10/02 02:35:34;;;;;;;4.38;3.58;;;;;;;;;;4915912;29;20500;-77
2021/10/02 02:38:02;;;;;;;2.63;2.42;;;;;;;;;;4934232;28;20054;-77
2021/10/02 02:40:30;;;;;;;3.05;2.63;;;;;;;;;;4933811;29;20048;-77
2021/10/02 02:42:58;;;;;;;6.05;3.95;;;;;;;;;;4934701;29;20040;-81
2021/10/02 02:45:27;;;;;;;5.15;3.20;;;;;;;;;;4932404;29;20048;-81
2021/10/02 02:48:01;;;;;;;3.55;2.80;;;;;;;;;;4913672;29;20055;-81
2021/10/02 02:50:48;;;;;;;3.70;3.40;;;;;;;;;;4915126;29;20052;-81
2021/10/02 02:53:16;;;;;;;3.60;3.30;;;;;;;;;;4914111;29;20052;-81
2021/10/02 02:55:47;;;;;;;3.95;3.55;;;;;;;;;;4913971;29;20402;-81
2021/10/02 02:58:18;;;;;;;3.70;3.40;;;;;;;;;;4922118;29;20059;-81
2021/10/02 03:00:56;;;;;;;4.45;2.50;;;;;;;;;;4924516;29;20068;-81
2021/10/02 03:03:35;;;;;;;5.03;4.05;;;;;;;;;;4916950;29;20055;-81
2021/10/02 03:06:11;;;;;;;3.38;2.58;;;;;;;;;;4917962;29;20048;-81
2021/10/02 03:08:40;;;;;;;5.03;3.35;;;;;;;;;;4913062;29;20056;-81
2021/10/02 03:11:10;;;;;;;5.10;3.97;;;;;;;;;;4914920;29;20494;-81
2021/10/02 03:13:39;;;;;;;4.68;3.70;;;;;;;;;;4913589;29;20052;-81
2021/10/02 03:16:10;;;;;;;6.60;3.47;;;;;;;;;;4915572;29;20088;-81
2021/10/02 03:18:40;;;;;;;5.50;4.97;;;;;;;;;;4924919;29;20047;-81
2021/10/02 03:21:09;;;;;;;3.85;3.42;;;;;;;;;;4932573;29;20051;-81
2021/10/02 03:23:38;;;;;;;5.22;4.15;;;;;;;;;;4934527;29;20052;-81
2021/10/02 03:26:06;;;;;;;3.80;3.45;;;;;;;;;;4935384;29;20056;-81
2021/10/02 03:28:35;;;;;;;5.13;4.65;;;;;;;;;;4920331;29;20048;-81
2021/10/02 03:31:04;;;;;;;5.15;3.35;;;;;;;;;;4905086;29;20056;-81
2021/10/02 03:33:32;;;;;;;5.80;4.00;;;;;;;;;;4935862;29;20047;-82
2021/10/02 03:36:00;;;;;;;4.53;4.13;;;;;;;;;;4937888;29;20043;-81
2021/10/02 03:38:28;;;;;;;3.80;3.08;;;;;;;;;;4936287;29;20043;-81
2021/10/02 03:41:00;;;;;;;4.70;4.30;;;;;;;;;;4920109;29;20686;-81
2021/10/02 03:43:29;;;;;;;5.47;3.58;;;;;;;;;;4936859;29;20441;-81
2021/10/02 03:45:57;;;;;;;5.00;4.13;;;;;;;;;;4934223;29;20059;-81
2021/10/02 03:48:26;;;;;;;5.53;5.03;;;;;;;;;;4906840;29;20063;-81
2021/10/02 03:50:54;;;;;;;5.13;4.30;;;;;;;;;;4901383;29;20048;-81
2021/10/02 03:53:22;;;;;;;3.08;2.45;;;;;;;;;;4901411;29;20055;-81
2021/10/02 03:55:50;;;;;;;3.20;2.90;;;;;;;;;;4916859;29;20048;-81
2021/10/02 03:58:18;;;;;;;3.45;2.90;;;;;;;;;;4917306;29;20048;-81
2021/10/02 04:00:46;;;;;;;3.75;3.10;;;;;;;;;;4918457;29;20048;-81
2021/10/02 04:03:14;;;;;;;3.97;3.50;;;;;;;;;;4933369;29;20063;-81
2021/10/02 04:05:42;;;;;;;5.38;4.05;;;;;;;;;;4919630;29;20512;-81
2021/10/02 04:08:10;;;;;;;4.15;3.65;;;;;;;;;;4937542;29;20052;-81
2021/10/02 04:10:38;;;;;;;5.05;3.95;;;;;;;;;;4940192;28;20490;-81
2021/10/02 04:13:06;;;;;;;9.10;5.78;;;;;;;;;;4958309;28;20038;-81
2021/10/02 04:15:34;;;;;;;4.07;2.97;;;;;;;;;;4958560;28;20384;-82
2021/10/02 04:18:03;;;;;;;3.78;2.92;;;;;;;;;;4920238;29;20048;-82
2021/10/02 04:20:31;;;;;;;5.65;3.28;;;;;;;;;;4935005;29;20051;-81
2021/10/02 04:22:59;;;;;;;4.13;3.33;;;;;;;;;;4935942;29;20055;-81
2021/10/02 04:25:27;;;;;;;3.70;2.80;;;;;;;;;;4918742;29;20044;-81
2021/10/02 04:27:55;;;;;;;3.25;2.78;;;;;;;;;;4935947;29;20055;-82
2021/10/02 04:30:23;;;;;;;3.30;3.00;;;;;;;;;;4935167;29;20052;-81
2021/10/02 04:32:51;;;;;;;4.63;3.72;;;;;;;;;;4935155;29;20489;-81
2021/10/02 04:35:19;;;;;;;4.70;3.60;;;;;;;;;;4919505;29;20058;-81
2021/10/02 04:37:48;;;;;;;4.07;3.13;;;;;;;;;;4919319;29;20052;-81
2021/10/02 04:40:16;;;;;;;5.13;4.00;;;;;;;;;;4936476;29;20393;-81
2021/10/02 04:42:44;;;;;;;6.03;3.95;;;;;;;;;;4935156;29;20048;-82
2021/10/02 04:45:17;;;;;;;4.63;4.35;;;;;;;;;;4934884;29;20750;-82
2021/10/02 04:47:48;;;;;;;7.63;4.35;;;;;;;;;;4922638;29;20058;-81
2021/10/02 04:50:16;;;;;;;4.93;3.40;;;;;;;;;;4955147;29;20393;-81
2021/10/02 04:52:44;;;;;;;5.00;4.35;;;;;;;;;;4921781;29;20055;-81
2021/10/02 04:55:12;;;;;;;4.28;3.88;;;;;;;;;;4921390;29;20405;-81
2021/10/02 04:57:40;;;;;;;7.97;3.45;;;;;;;;;;4937549;29;20047;-82
2021/10/02 05:00:08;;;;;;;5.82;3.92;;;;;;;;;;4938589;29;20476;-81
2021/10/02 05:02:36;;;;;;;5.22;4.18;;;;;;;;;;4955410;28;20047;-81
2021/10/02 05:05:04;;;;;;;4.60;4.10;;;;;;;;;;4952304;28;20047;-81
2021/10/02 05:07:32;;;;;;;6.65;3.78;;;;;;;;;;4941585;28;20050;-81
2021/10/02 05:10:01;;;;;;;5.35;3.78;;;;;;;;;;4937659;29;20059;-81
2021/10/02 05:12:28;;;;;;;4.68;3.38;;;;;;;;;;4918938;29;20055;-82
2021/10/02 05:14:56;;;;;;;2.92;2.72;;;;;;;;;;4899931;29;20048;-82
2021/10/02 05:17:24;;;;;;;4.80;3.03;;;;;;;;;;4899951;29;20048;-81
2021/10/02 05:19:53;;;;;;;7.90;2.80;;;;;;;;;;4919113;29;20066;-82
2021/10/02 05:22:21;;;;;;;4.47;3.20;;;;;;;;;;4934621;29;20048;-81
2021/10/02 05:24:49;;;;;;;3.83;3.45;;;;;;;;;;4902860;28;20054;-82
2021/10/02 05:27:17;;;;;;;3.33;3.03;;;;;;;;;;4934882;29;20055;-82
2021/10/02 05:29:46;;;;;;;4.35;3.80;;;;;;;;;;4902673;29;20056;-82
2021/10/02 05:32:14;;;;;;;5.72;4.35;;;;;;;;;;4918727;29;20059;-82
2021/10/02 05:34:42;;;;;;;4.30;3.25;;;;;;;;;;4934188;29;20052;-82
2021/10/02 05:37:10;;;;;;;4.47;4.07;;;;;;;;;;4934077;29;20043;-82
2021/10/02 05:39:38;;;;;;;6.72;3.80;;;;;;;;;;4934124;29;20063;-81
2021/10/02 05:42:06;;;;;;;4.35;3.72;;;;;;;;;;4935047;28;20067;-82
2021/10/02 05:44:34;;;;;;;3.92;3.30;;;;;;;;;;4918227;29;20066;-82
2021/10/02 05:47:02;;;;;;;4.43;3.10;;;;;;;;;;4934832;29;20540;-82
2021/10/02 05:49:30;;;;;;;6.47;4.57;;;;;;;;;;4918252;29;20044;-82
2021/10/02 05:51:58;;;;;;;7.35;3.72;;;;;;;;;;4933960;29;20055;-81
2021/10/02 05:54:26;;;;;;;4.40;3.88;;;;;;;;;;4902453;29;20054;-81
2021/10/02 05:56:54;;;;;;;5.35;4.70;;;;;;;;;;4917624;29;20395;-82
2021/10/02 05:59:22;;;;;;;4.85;3.20;;;;;;;;;;4933862;29;20059;-82
2021/10/02 06:01:50;;;;;;;3.38;3.08;;;;;;;;;;4917123;29;20059;-82
2021/10/02 06:04:18;;;;;;;4.15;3.75;;;;;;;;;;4933599;29;20067;-82
2021/10/02 06:06:46;;;;;;;3.35;2.63;;;;;;;;;;4917666;29;20413;-82
2021/10/02 06:09:14;;;;;;;4.72;2.67;;;;;;;;;;4934411;29;20047;-82
2021/10/02 06:11:42;;;;;;;4.97;3.28;;;;;;;;;;4933423;29;20055;-82
2021/10/02 06:14:10;;;;;;;3.45;3.08;;;;;;;;;;4918058;29;20071;-82
2021/10/02 06:16:38;;;;;;;4.47;4.07;;;;;;;;;;4918067;29;20055;-82
2021/10/02 06:19:07;;;;;;;4.70;3.38;;;;;;;;;;4917430;29;20066;-82
2021/10/02 06:21:35;;;;;;;3.35;2.80;;;;;;;;;;4916991;29;20056;-82
2021/10/02 06:24:04;;;;;;;5.78;4.32;;;;;;;;;;4901732;29;20078;-78
2021/10/02 06:26:33;;;;;;;4.22;3.63;;;;;;;;;;4932395;29;20039;-78
2021/10/02 06:29:01;;;;;;;4.22;3.10;;;;;;;;;;4917408;29;20067;-78
2021/10/02 06:31:29;;;;;;;5.93;3.55;;;;;;;;;;4917092;29;20055;-78
2021/10/02 06:33:57;;;;;;;4.13;3.45;;;;;;;;;;4934410;29;20055;-78
2021/10/02 06:36:27;;;;;;;3.53;3.22;;;;;;;;;;4934454;29;20051;-81
2021/10/02 06:38:56;;;;;;;5.07;4.38;;;;;;;;;;4933444;28;20050;-80
2021/10/02 06:41:24;;;;;;;4.63;2.70;;;;;;;;;;4933892;29;20046;-81
2021/10/02 06:43:52;;;;;;;4.25;3.05;;;;;;;;;;4934695;29;20063;-77
2021/10/02 06:46:24;;;;;;;4.10;3.67;;;;;;;;;;4917903;29;20048;-77
2021/10/02 06:48:52;;;;;;;3.78;3.47;;;;;;;;;;4933087;29;20052;-78
2021/10/02 06:51:20;;;;;;;11.68;4.10;;;;;;;;;;4934474;29;20406;-77
2021/10/02 06:53:48;;;;;;;5.05;3.78;;;;;;;;;;4934046;29;20044;-78
2021/10/02 06:56:16;;;;;;;88.95;55.35;;;;;;;;;;4933291;29;20378;-78
2021/10/02 06:58:44;;;;;;;4.28;3.88;;;;;;;;;;4932576;29;20055;-77
2021/10/02 07:01:12;;;;;;;9.02;5.82;;;;;;;;;;4933366;28;20058;-77
2021/10/02 07:03:40;;;;;;;7.80;5.57;;;;;;;;;;4932931;29;20722;-77
2021/10/02 07:06:08;;;;;;;4.68;4.22;;;;;;;;;;4933627;28;20048;-84
2021/10/02 07:08:36;;;;;;;5.75;4.68;;;;;;;;;;4916319;28;20048;-83
2021/10/02 07:11:05;;;;;;;3.40;2.58;;;;;;;;;;4915183;29;20059;-83
2021/10/02 07:13:33;;;;;;;6.38;3.13;;;;;;;;;;4916047;29;20484;-83
2021/10/02 07:16:01;;;;;;;3.95;2.70;;;;;;;;;;4916464;29;20070;-83
2021/10/02 07:18:29;;;;;;;2.80;2.40;;;;;;;;;;4931901;29;20489;-83
2021/10/02 07:20:57;;;;;;;2.70;2.42;;;;;;;;;;4931333;29;20048;-84
2021/10/02 07:23:29;;;;;;;3.67;2.90;;;;;;;;;;4916495;29;20063;-81
2021/10/02 07:25:57;;;;;;;2.85;2.63;;;;;;;;;;4925271;29;20069;-83
2021/10/02 07:28:25;;;;;;;3.97;3.58;;;;;;;;;;4919512;29;20052;-82
2021/10/02 07:30:53;;;;;;;4.55;4.15;;;;;;;;;;4931892;29;20060;-82
2021/10/02 07:33:21;;;;;;;2.80;2.47;;;;;;;;;;4932006;29;20417;-83
2021/10/02 07:35:49;;;;;;;4.72;2.85;;;;;;;;;;4932046;29;20052;-82
2021/10/02 07:38:17;;;;;;;4.18;2.95;;;;;;;;;;4927002;29;20508;-83
2021/10/02 07:40:45;;;;;;;3.22;2.92;;;;;;;;;;4913222;29;20044;-83
2021/10/02 07:43:13;;;;;;;4.05;3.17;;;;;;;;;;4914653;29;20052;-83
2021/10/02 07:45:43;;;;;;;2.97;2.50;;;;;;;;;;4914151;29;20059;-83
2021/10/02 07:48:15;;;;;;;3.03;2.35;;;;;;;;;;4914630;29;20068;-83
2021/10/02 07:50:43;;;;;;;5.40;4.22;;;;;;;;;;4911872;29;20072;-82
2021/10/02 07:53:12;;;;;;;3.40;2.55;;;;;;;;;;4912737;29;20541;-82
2021/10/02 07:55:40;;;;;;;4.30;2.72;;;;;;;;;;4912152;29;20055;-83
2021/10/02 07:58:08;;;;;;;4.05;3.10;;;;;;;;;;4896673;29;20051;-83
2021/10/02 08:00:36;;;;;;;4.53;3.10;;;;;;;;;;4912505;29;20406;-82
2021/10/02 08:03:04;;;;;;;6.15;3.88;;;;;;;;;;4922575;29;20051;-82
2021/10/02 08:05:33;;;;;;;4.28;2.63;;;;;;;;;;4931494;29;20691;-81
2021/10/02 08:08:01;;;;;;;4.85;3.40;;;;;;;;;;4932021;29;20426;-81
2021/10/02 08:10:29;;;;;;;2.65;2.00;;;;;;;;;;4933163;29;20043;-80
2021/10/02 08:12:58;;;;;;;5.68;2.55;;;;;;;;;;4935119;29;20525;-81
2021/10/02 08:15:26;;;;;;;5.43;2.92;;;;;;;;;;4936812;29;20044;-81
2021/10/02 08:17:55;;;;;;;3.45;2.53;;;;;;;;;;4935572;29;20572;-81
2021/10/02 08:20:23;;;;;;;4.20;2.90;;;;;;;;;;4929730;29;20397;-81
2021/10/02 08:22:53;;;;;;;2.67;2.47;;;;;;;;;;4916146;29;20063;-81
2021/10/02 08:25:21;;;;;;;3.73;2.97;;;;;;;;;;4896778;29;20067;-81
2021/10/02 08:27:54;;;;;;;4.25;2.90;;;;;;;;;;4916545;29;20292;-81
2021/10/02 08:30:22;;;;;;;4.95;2.85;;;;;;;;;;4915405;29;20056;-81
2021/10/02 08:32:50;;;;;;;8.00;3.05;;;;;;;;;;4914284;29;20060;-81
2021/10/02 08:35:18;;;;;;;2.88;2.67;;;;;;;;;;4915699;29;20412;-81
2021/10/02 08:37:46;;;;;;;4.30;3.67;;;;;;;;;;4917286;29;20410;-81
2021/10/02 08:40:15;;;;;;;3.40;2.90;;;;;;;;;;4933098;29;20473;-80
2021/10/02 08:42:44;;;;;;;7.20;2.88;;;;;;;;;;4917395;29;20048;-81
2021/10/02 08:45:12;;;;;;;6.13;2.80;;;;;;;;;;4933030;29;20430;-81
2021/10/02 08:47:42;;;;;;;3.47;2.75;;;;;;;;;;4935196;29;20051;-81
2021/10/02 08:50:11;;;;;;;3.83;2.40;;;;;;;;;;4934098;29;20058;-80
2021/10/02 08:52:40;;;;;;;3.20;2.88;;;;;;;;;;4933236;29;20051;-81
2021/10/02 08:55:09;;;;;;;4.25;2.83;;;;;;;;;;4932199;29;20043;-80
2021/10/02 08:57:37;;;;;;;3.45;2.92;;;;;;;;;;4916321;29;20409;-81
2021/10/02 09:00:07;;;;;;;3.80;3.42;;;;;;;;;;4934151;29;20473;-81
2021/10/02 09:02:35;;;;;;;4.63;2.90;;;;;;;;;;4934112;29;20064;-81
2021/10/02 09:05:06;;;;;;;5.65;3.30;;;;;;;;;;4934188;29;20048;-80
2021/10/02 09:07:34;;;;;;;2.60;2.40;;;;;;;;;;4933302;29;20058;-81
2021/10/02 09:10:05;;;;;;;2.80;2.53;;;;;;;;;;4931148;29;20059;-80
2021/10/02 09:12:33;;;;;;;;;;;;;;;;;;4933570;29;20074;-81
2021/10/02 09:15:03;;;;;;;5.05;4.30;;;;;;;;;;4934518;29;19927;-81
2021/10/02 09:17:31;;;;;;;2.55;1.98;;;;;;;;;;4933892;28;20051;-81
2021/10/02 09:19:59;;;;;;;16.23;3.50;;;;;;;;;;4932585;29;20074;-81
2021/10/02 09:22:28;;;;;;;7.18;4.30;;;;;;;;;;4932777;29;20085;-81
2021/10/02 09:24:59;;;;;;;3.03;2.33;;;;;;;;;;4933574;28;20054;-81
2021/10/02 09:27:28;;;;;;;6.45;3.25;;;;;;;;;;4933090;29;20508;-81
2021/10/02 09:29:59;;;;;;;3.95;3.00;;;;;;;;;;4931824;29;20044;-82
2021/10/02 09:32:26;;;;;;;;;;;;;;;;;;4933325;29;20397;-81
2021/10/02 09:34:56;;;;;;;2.60;2.10;;;;;;;;;;4934039;29;19927;-81
2021/10/02 09:37:24;;;;;;;12.18;3.42;;;;;;;;;;4934665;29;20044;-83
2021/10/02 09:39:53;;;;;;;4.18;2.47;;;;;;;;;;4933486;29;20060;-82
2021/10/02 09:42:23;;;;;;;3.88;2.38;;;;;;;;;;4934252;28;20071;-84
2021/10/02 09:44:51;;;;;;;4.55;2.92;;;;;;;;;;4934858;29;20040;-85
2021/10/02 09:47:19;;;;;;;4.22;2.38;;;;;;;;;;4931377;29;20048;-81
2021/10/02 09:49:48;;;;;;;3.47;2.67;;;;;;;;;;4931879;28;20051;-82
2021/10/02 09:52:36;;;;;;;3.10;2.40;;;;;;;;;;4902335;29;20048;-82
2021/10/02 09:55:15;;;;;;;4.75;2.63;;;;;;;;;;4932040;29;20473;-83
2021/10/02 09:57:47;;;;;;;5.00;3.05;;;;;;;;;;4934318;29;20035;-81
2021/10/02 10:00:17;;;;;;;3.38;2.55;;;;;;;;;;4935078;29;20052;-82
2021/10/02 10:02:45;;;;;;;5.93;3.10;;;;;;;;;;4934642;29;20055;-82
2021/10/02 10:05:14;;;;;;;2.67;2.13;;;;;;;;;;4932314;28;20051;-82
2021/10/02 10:07:53;;;;;;;5.22;2.97;;;;;;;;;;4933418;29;20266;-81
2021/10/02 10:10:21;;;;;;;2.47;2.28;;;;;;;;;;4933260;29;20051;-81
2021/10/02 10:12:50;;;;;;;6.28;2.70;;;;;;;;;;4916415;29;20047;-81
2021/10/02 10:15:39;;;;;;;2.80;2.50;;;;;;;;;;4917900;29;20039;-81
2021/10/02 10:18:09;;;;;;;6.97;2.72;;;;;;;;;;4933000;29;20048;-81
2021/10/02 10:20:39;;;;;;;5.55;2.70;;;;;;;;;;4918547;29;20075;-81
2021/10/02 10:23:08;;;;;;;4.57;3.17;;;;;;;;;;4915939;29;20048;-83
2021/10/02 10:25:47;;;;;;;3.13;1.88;;;;;;;;;;4933127;29;20397;-82
2021/10/02 10:28:17;;;;;;;3.97;2.83;;;;;;;;;;4933595;29;20051;-82
2021/10/02 10:30:47;;;;;;;4.45;3.00;;;;;;;;;;4933562;28;20044;-82
2021/10/02 10:33:16;;;;;;;4.47;2.97;;;;;;;;;;4933603;29;20039;-82
2021/10/02 10:35:45;;;;;;;5.18;3.58;;;;;;;;;;4934101;29;20047;-82
2021/10/02 10:38:15;;;;;;;3.60;2.80;;;;;;;;;;4933280;28;20047;-82
2021/10/02 10:40:45;;;;;;;3.38;2.38;;;;;;;;;;4915533;29;20055;-82
2021/10/02 10:43:13;;;;;;;3.70;3.17;;;;;;;;;;4934013;29;20512;-82
2021/10/02 10:45:44;;;;;;;4.03;3.15;;;;;;;;;;4932238;28;20047;-82
2021/10/02 10:48:12;;;;;;;4.15;3.17;;;;;;;;;;4932659;29;20055;-83
2021/10/02 10:50:44;;;;;;;17.15;3.30;;;;;;;;;;4930049;29;20497;-79
2021/10/02 10:53:12;;;;;;;7.75;3.53;;;;;;;;;;4932722;28;20059;-84
2021/10/02 10:55:53;;;;;;;4.78;3.30;;;;;;;;;;4930812;29;20497;-81
2021/10/02 10:58:21;;;;;;;;;;;;;;;;;;4899917;29;20498;-82
2021/10/02 11:00:49;;;;;;;4.75;4.25;;;;;;;;;;4930478;28;22065;-82
2021/10/02 11:03:34;;;;;;;4.28;3.88;;;;;;;;;;4929051;29;20055;-83
2021/10/02 11:06:02;;;;;;;6.35;3.47;;;;;;;;;;4930153;29;20062;-82
2021/10/02 11:08:52;;;;;;;4.97;4.47;;;;;;;;;;4931874;28;20051;-81
2021/10/02 11:11:40;;;;;;;4.75;2.90;;;;;;;;;;4929989;29;20068;-79
2021/10/02 11:14:08;;;;;;;3.45;3.13;;;;;;;;;;4932546;29;20512;-80
2021/10/02 11:16:38;;;;;;;4.55;3.50;;;;;;;;;;4931425;28;20433;-80
2021/10/02 11:19:25;;;;;;;4.97;3.70;;;;;;;;;;4932339;29;20056;-80
2021/10/02 11:22:04;;;;;;;5.97;3.40;;;;;;;;;;4929694;29;20047;-80
2021/10/02 11:24:38;;;;;;;5.50;4.97;;;;;;;;;;4930202;28;20047;-79
2021/10/02 11:27:07;;;;;;;4.57;3.22;;;;;;;;;;4930443;29;20053;-79
2021/10/02 11:29:36;;;;;;;3.97;3.50;;;;;;;;;;4930312;29;20044;-80
2021/10/02 11:32:25;;;;;;;5.18;3.88;;;;;;;;;;4931574;29;20051;-79
2021/10/02 11:35:05;;;;;;;3.63;2.53;;;;;;;;;;4931597;29;20063;-81
2021/10/02 11:37:43;;;;;;;4.65;3.35;;;;;;;;;;4931433;29;20413;-80
2021/10/02 11:40:29;;;;;;;7.07;3.67;;;;;;;;;;4911470;29;20056;-80
2021/10/02 11:43:12;;;;;;;4.93;3.90;;;;;;;;;;4912521;29;20048;-81
2021/10/02 11:45:41;;;;;;;8.43;4.30;;;;;;;;;;4914499;29;20044;-81
2021/10/02 11:48:13;;;;;;;4.75;4.35;;;;;;;;;;4916470;29;20048;-81
2021/10/02 11:50:41;;;;;;;4.10;3.35;;;;;;;;;;4913598;29;20048;-80
2021/10/02 11:53:12;;;;;;;5.45;4.18;;;;;;;;;;4916391;29;20044;-81
2021/10/02 11:55:40;;;;;;;;;;;;;;;;;;4915320;29;20059;-80
2021/10/02 11:58:10;;;;;;;6.55;3.70;;;;;;;;;;4916324;29;19923;-81
2021/10/02 12:00:40;;;;;;;6.03;3.85;;;;;;;;;;4915747;29;20048;-80
2021/10/02 12:03:08;;;;;;;4.03;3.17;;;;;;;;;;4916950;29;20063;-79
2021/10/02 12:05:36;;;;;;;4.32;3.25;;;;;;;;;;4914689;29;20052;-80
2021/10/02 12:08:07;;;;;;;5.88;3.80;;;;;;;;;;4919265;29;20402;-80
2021/10/02 12:10:35;;;;;;;;;;;;;;;;;;4915325;29;20461;-80
2021/10/02 12:13:19;;;;;;;7.47;4.05;;;;;;;;;;4935164;29;19927;-80
2021/10/02 12:15:47;;;;;;;4.93;3.00;;;;;;;;;;4935676;29;20047;-81
2021/10/02 12:18:15;;;;;;;7.43;3.53;;;;;;;;;;4935038;29;20043;-80
2021/10/02 12:20:43;;;;;;;5.43;3.67;;;;;;;;;;4932952;28;20059;-80
2021/10/02 12:23:13;;;;;;;6.63;3.28;;;;;;;;;;4935426;29;20051;-80
2021/10/02 12:25:41;;;;;;;6.22;3.80;;;;;;;;;;4932776;29;20058;-80
2021/10/02 12:28:21;;;;;;;13.73;4.72;;;;;;;;;;4935440;29;20405;-82
2021/10/02 12:30:52;;;;;;;4.88;3.60;;;;;;;;;;4917828;29;20051;-81
2021/10/02 12:33:22;;;;;;;5.07;3.92;;;;;;;;;;4935226;29;20059;-81
2021/10/02 12:35:50;;;;;;;4.93;3.10;;;;;;;;;;4934924;29;20044;-80
2021/10/02 12:38:21;;;;;;;6.53;3.53;;;;;;;;;;4933099;29;20052;-80
2021/10/02 12:40:53;;;;;;;6.95;3.60;;;;;;;;;;4932465;29;20056;-80
2021/10/02 12:43:22;;;;;;;5.93;3.13;;;;;;;;;;4935095;29;20401;-80
2021/10/02 12:45:50;;;;;;;6.22;3.42;;;;;;;;;;4933369;29;20051;-80
2021/10/02 12:48:18;;;;;;;4.90;4.43;;;;;;;;;;4934762;29;20056;-80
2021/10/02 12:50:46;;;;;;;5.15;3.13;;;;;;;;;;4932225;29;20067;-80
2021/10/02 12:53:14;;;;;;;5.40;3.85;;;;;;;;;;4933920;29;20499;-81
2021/10/02 12:55:43;;;;;;;3.92;3.20;;;;;;;;;;4931482;29;20682;-80
2021/10/02 12:58:15;;;;;;;5.15;3.00;;;;;;;;;;4932198;29;20052;-80
2021/10/02 13:00:43;;;;;;;4.78;3.30;;;;;;;;;;4933808;28;20482;-80
2021/10/02 13:03:15;;;;;;;3.20;2.90;;;;;;;;;;4933248;29;20047;-80
2021/10/02 13:05:44;;;;;;;3.55;3.10;;;;;;;;;;4934201;28;20056;-81
2021/10/02 13:08:19;;;;;;;5.40;3.70;;;;;;;;;;4932573;29;20052;-80
2021/10/02 13:10:48;;;;;;;4.20;3.05;;;;;;;;;;4926895;29;20063;-81
2021/10/02 13:13:20;;;;;;;4.03;3.17;;;;;;;;;;4913778;29;20383;-81
2021/10/02 13:15:49;;;;;;;4.20;3.17;;;;;;;;;;4915294;29;20398;-81
2021/10/02 13:18:18;;;;;;;4.28;3.80;;;;;;;;;;4914108;29;20044;-81
2021/10/02 13:20:46;;;;;;;4.75;3.40;;;;;;;;;;4914499;29;20545;-81
2021/10/02 13:23:15;;;;;;;2.85;2.63;;;;;;;;;;4915296;29;20052;-81
2021/10/02 13:25:57;;;;;;;3.88;2.60;;;;;;;;;;4911615;29;20052;-81
2021/10/02 13:28:25;;;;;;;5.03;3.38;;;;;;;;;;4915214;29;20075;-80
2021/10/02 13:30:54;;;;;;;5.25;2.97;;;;;;;;;;4914496;29;20383;-80
2021/10/02 13:33:22;;;;;;;5.68;3.10;;;;;;;;;;4914977;29;20047;-81
2021/10/02 13:35:51;;;;;;;4.53;2.65;;;;;;;;;;4897308;29;20048;-80
2021/10/02 13:38:30;;;;;;;2.63;2.42;;;;;;;;;;4919554;29;20051;-81
2021/10/02 13:41:00;;;;;;;5.20;2.75;;;;;;;;;;4931108;29;20414;-80
2021/10/02 13:43:28;;;;;;;4.65;3.00;;;;;;;;;;4933941;29;20118;-81
2021/10/02 13:45:56;;;;;;;3.03;2.40;;;;;;;;;;4930544;29;20044;-81
2021/10/02 13:48:26;;;;;;;6.40;2.63;;;;;;;;;;4916123;29;20596;-81
2021/10/02 13:50:54;;;;;;;4.00;3.55;;;;;;;;;;4915494;29;20052;-81
2021/10/02 13:53:22;;;;;;;4.50;3.63;;;;;;;;;;4915601;29;20048;-81
2021/10/02 13:55:50;;;;;;;3.95;3.60;;;;;;;;;;4914245;29;20048;-81
2021/10/02 13:58:18;;;;;;;2.70;2.50;;;;;;;;;;4915657;29;20395;-80
2021/10/02 14:00:46;;;;;;;7.20;4.38;;;;;;;;;;4913862;29;20048;-80
2021/10/02 14:03:14;;;;;;;6.50;2.55;;;;;;;;;;4915287;29;20052;-80
2021/10/02 14:05:42;;;;;;;3.75;2.35;;;;;;;;;;4933884;28;20059;-81
2021/10/02 14:08:10;;;;;;;4.25;2.50;;;;;;;;;;4934563;29;20040;-81
2021/10/02 14:10:38;;;;;;;3.40;2.25;;;;;;;;;;4937806;28;20044;-80
2021/10/02 14:13:06;;;;;;;5.40;2.20;;;;;;;;;;4972777;28;20504;-81
2021/10/02 14:15:34;;;;;;;2.50;1.90;;;;;;;;;;4961083;28;20051;-80
2021/10/02 14:18:03;;;;;;;2.67;2.10;;;;;;;;;;4953607;29;20050;-80
2021/10/02 14:20:31;;;;;;;3.13;2.15;;;;;;;;;;4952789;29;20063;-79
2021/10/02 14:22:59;;;;;;;3.15;2.28;;;;;;;;;;4936154;29;20055;-80
2021/10/02 14:25:27;;;;;;;4.25;3.00;;;;;;;;;;4935647;29;20046;-80
2021/10/02 14:27:56;;;;;;;2.80;2.20;;;;;;;;;;4953557;29;20051;-80
2021/10/02 14:30:24;;;;;;;3.20;2.28;;;;;;;;;;4953174;29;20074;-79
2021/10/02 14:32:53;;;;;;;8.63;2.53;;;;;;;;;;4952907;29;20040;-82
2021/10/02 14:35:21;;;;;;;3.83;2.67;;;;;;;;;;4920329;29;20043;-81
2021/10/02 14:37:49;;;;;;;3.30;2.92;;;;;;;;;;4935879;29;20078;-81
2021/10/02 14:40:18;;;;;;;4.43;3.70;;;;;;;;;;4952512;28;20047;-80
2021/10/02 14:42:58;;;;;;;2.67;2.45;;;;;;;;;;4952584;29;20047;-81
2021/10/02 14:45:26;;;;;;;4.10;1.90;;;;;;;;;;4952545;28;20051;-81
2021/10/02 14:47:54;;;;;;;4.07;2.67;;;;;;;;;;4953265;29;20051;-81
2021/10/02 14:50:23;;;;;;;2.17;1.73;;;;;;;;;;4952380;29;20090;-80
2021/10/02 14:52:53;;;;;;;1.92;1.67;;;;;;;;;;4934592;29;20051;-80
2021/10/02 14:55:21;;;;;;;3.10;2.78;;;;;;;;;;4952629;29;20066;-80
2021/10/02 14:57:49;;;;;;;1.77;1.33;;;;;;;;;;4952318;29;20051;-81
2021/10/02 15:00:17;;;;;;;3.60;1.65;;;;;;;;;;4953182;29;20473;-80
2021/10/02 15:02:45;;;;;;;2.75;2.00;;;;;;;;;;4934989;29;20397;-80
2021/10/02 15:05:14;;;;;;;2.97;2.60;;;;;;;;;;4952475;29;20044;-80
2021/10/02 15:07:42;;;;;;;1.90;1.67;;;;;;;;;;4935354;29;20062;-81
2021/10/02 15:10:11;;;;;;;2.75;2.22;;;;;;;;;;4951911;28;20055;-80
2021/10/02 15:12:40;;;;;;;2.70;1.80;;;;;;;;;;4932008;29;20055;-80
2021/10/02 15:15:10;;;;;;;3.67;2.60;;;;;;;;;;4934334;29;20311;-81
2021/10/02 15:17:38;;;;;;;2.40;2.20;;;;;;;;;;4933008;28;20048;-80
2021/10/02 15:20:06;;;;;;;2.22;1.83;;;;;;;;;;4932788;29;20059;-80
2021/10/02 15:22:35;;;;;;;7.85;2.65;;;;;;;;;;4932395;29;20390;-85
2021/10/02 15:25:05;;;;;;;3.70;2.78;;;;;;;;;;4929278;29;20043;-78
2021/10/02 15:27:34;;;;;;;2.55;2.28;;;;;;;;;;4931030;29;20052;-78
2021/10/02 15:30:03;;;;;;;1.85;1.73;;;;;;;;;;4931278;29;20055;-78
2021/10/02 15:32:32;;;;;;;3.65;2.75;;;;;;;;;;4931881;29;20044;-78
2021/10/02 15:35:01;;;;;;;2.13;1.60;;;;;;;;;;4932051;29;20409;-79
2021/10/02 15:37:35;;;;;;;1.88;1.67;;;;;;;;;;4931463;29;20048;-78
2021/10/02 15:40:04;;;;;;;2.47;2.28;;;;;;;;;;4931120;29;20055;-78
2021/10/02 15:42:32;;;;;;;1.95;1.80;;;;;;;;;;4930783;29;20052;-77
2021/10/02 15:45:00;;;;;;;1.65;1.50;;;;;;;;;;4931830;29;20047;-78
2021/10/02 15:47:29;;;;;;;3.88;2.35;;;;;;;;;;4932032;29;20401;-78
2021/10/02 15:49:58;;;;;;;4.05;1.90;;;;;;;;;;4898546;29;20048;-78
2021/10/02 15:52:25;;;;;;;2.70;2.20;;;;;;;;;;4932398;29;20393;-78
2021/10/02 15:54:53;;;;;;;2.78;2.53;;;;;;;;;;4933152;29;20048;-78